sensor_id;sensor_type;location;lat;lon;timestamp;P1;durP1;ratioP1;P2;durP2;ratioP2
14883;SDS011;7534;50.762;7.000;2023-06-19T00:00:17;7.85;;;7.20;;
14883;SDS011;7534;50.762;7.000;2023-06-19T00:02:43;7.68;;;7.05;;
14883;SDS011;7534;50.762;7.000;2023-06-19T00:05:09;7.30;;;6.70;;
14883;SDS011;7534;50.762;7.000;2023-06-19T00:07:38;8.07;;;7.43;;
14883;SDS011;7534;50.762;7.000;2023-06-19T00:10:04;7.50;;;6.90;;
14883;SDS011;7534;50.762;7.000;2023-06-19T00:12:33;7.80;;;7.20;;
14883;SDS011;7534;50.762;7.000;2023-06-19T00:14:59;8.30;;;7.60;;
14883;SDS011;7534;50.762;7.000;2023-06-19T00:17:25;7.65;;;6.95;;
14883;SDS011;7534;50.762;7.000;2023-06-19T00:19:53;7.30;;;6.70;;
14883;SDS011;7534;50.762;7.000;2023-06-19T00:22:19;7.75;;;7.00;;
14883;SDS011;7534;50.762;7.000;2023-06-19T00:24:45;7.40;;;6.80;;
14883;SDS011;7534;50.762;7.000;2023-06-19T00:27:10;7.88;;;7.28;;
14883;SDS011;7534;50.762;7.000;2023-06-19T00:29:36;7.60;;;6.93;;
14883;SDS011;7534;50.762;7.000;2023-06-19T00:32:02;8.27;;;7.03;;
14883;SDS011;7534;50.762;7.000;2023-06-19T00:34:28;7.88;;;7.28;;
14883;SDS011;7534;50.762;7.000;2023-06-19T00:36:55;7.90;;;7.28;;
14883;SDS011;7534;50.762;7.000;2023-06-19T00:39:22;8.05;;;7.40;;
14883;SDS011;7534;50.762;7.000;2023-06-19T00:41:51;7.80;;;7.20;;
14883;SDS011;7534;50.762;7.000;2023-06-19T00:44:17;7.85;;;7.25;;
14883;SDS011;7534;50.762;7.000;2023-06-19T00:46:43;8.02;;;7.43;;
14883;SDS011;7534;50.762;7.000;2023-06-19T00:49:09;8.23;;;7.53;;
14883;SDS011;7534;50.762;7.000;2023-06-19T00:51:36;9.32;;;8.52;;
14883;SDS011;7534;50.762;7.000;2023-06-19T00:54:02;8.90;;;8.20;;
14883;SDS011;7534;50.762;7.000;2023-06-19T00:56:29;8.35;;;7.65;;
14883;SDS011;7534;50.762;7.000;2023-06-19T00:58:55;9.32;;;7.88;;
14883;SDS011;7534;50.762;7.000;2023-06-19T01:01:21;8.65;;;7.93;;
14883;SDS011;7534;50.762;7.000;2023-06-19T01:03:48;8.85;;;8.05;;
14883;SDS011;7534;50.762;7.000;2023-06-19T01:06:20;8.77;;;7.97;;
14883;SDS011;7534;50.762;7.000;2023-06-19T01:11:32;7.95;;;7.25;;
14883;SDS011;7534;50.762;7.000;2023-06-19T01:14:11;8.82;;;8.00;;
14883;SDS011;7534;50.762;7.000;2023-06-19T01:16:49;8.07;;;7.28;;
14883;SDS011;7534;50.762;7.000;2023-06-19T01:19:18;8.52;;;7.78;;
14883;SDS011;7534;50.762;7.000;2023-06-19T01:21:46;7.65;;;7.05;;
14883;SDS011;7534;50.762;7.000;2023-06-19T01:24:15;8.50;;;7.70;;
14883;SDS011;7534;50.762;7.000;2023-06-19T01:26:41;8.00;;;7.30;;
14883;SDS011;7534;50.762;7.000;2023-06-19T01:29:10;8.43;;;7.72;;
14883;SDS011;7534;50.762;7.000;2023-06-19T01:34:18;8.15;;;7.45;;
14883;SDS011;7534;50.762;7.000;2023-06-19T01:36:47;8.38;;;7.70;;
14883;SDS011;7534;50.762;7.000;2023-06-19T01:39:16;8.25;;;7.47;;
14883;SDS011;7534;50.762;7.000;2023-06-19T01:41:45;7.50;;;6.90;;
14883;SDS011;7534;50.762;7.000;2023-06-19T01:44:12;8.05;;;7.45;;
14883;SDS011;7534;50.762;7.000;2023-06-19T01:46:38;8.00;;;7.30;;
14883;SDS011;7534;50.762;7.000;2023-06-19T01:49:07;8.10;;;7.40;;
14883;SDS011;7534;50.762;7.000;2023-06-19T01:51:34;8.23;;;7.53;;
14883;SDS011;7534;50.762;7.000;2023-06-19T01:54:00;8.40;;;7.60;;
14883;SDS011;7534;50.762;7.000;2023-06-19T01:56:26;7.90;;;7.10;;
14883;SDS011;7534;50.762;7.000;2023-06-19T01:58:52;7.95;;;7.35;;
14883;SDS011;7534;50.762;7.000;2023-06-19T02:01:20;7.60;;;7.00;;
14883;SDS011;7534;50.762;7.000;2023-06-19T02:03:46;8.77;;;7.97;;
14883;SDS011;7534;50.762;7.000;2023-06-19T02:06:12;8.05;;;7.38;;
14883;SDS011;7534;50.762;7.000;2023-06-19T02:08:37;8.68;;;7.88;;
14883;SDS011;7534;50.762;7.000;2023-06-19T02:11:03;8.38;;;7.70;;
14883;SDS011;7534;50.762;7.000;2023-06-19T02:13:28;8.88;;;8.15;;
14883;SDS011;7534;50.762;7.000;2023-06-19T02:15:54;8.85;;;8.10;;
14883;SDS011;7534;50.762;7.000;2023-06-19T02:18:20;8.82;;;8.13;;
14883;SDS011;7534;50.762;7.000;2023-06-19T02:20:45;8.52;;;7.90;;
14883;SDS011;7534;50.762;7.000;2023-06-19T02:23:11;8.23;;;7.53;;
14883;SDS011;7534;50.762;7.000;2023-06-19T02:25:37;8.10;;;7.40;;
14883;SDS011;7534;50.762;7.000;2023-06-19T02:28:02;8.15;;;7.45;;
14883;SDS011;7534;50.762;7.000;2023-06-19T02:30:28;7.38;;;6.80;;
14883;SDS011;7534;50.762;7.000;2023-06-19T02:32:54;7.50;;;6.90;;
14883;SDS011;7534;50.762;7.000;2023-06-19T02:35:20;7.40;;;6.80;;
14883;SDS011;7534;50.762;7.000;2023-06-19T02:37:45;7.70;;;7.05;;
14883;SDS011;7534;50.762;7.000;2023-06-19T02:40:12;7.20;;;6.60;;
14883;SDS011;7534;50.762;7.000;2023-06-19T02:42:39;7.78;;;7.03;;
14883;SDS011;7534;50.762;7.000;2023-06-19T02:45:05;7.78;;;7.18;;
14883;SDS011;7534;50.762;7.000;2023-06-19T02:47:31;7.60;;;6.90;;
14883;SDS011;7534;50.762;7.000;2023-06-19T02:49:58;7.53;;;6.93;;
14883;SDS011;7534;50.762;7.000;2023-06-19T02:52:26;8.15;;;7.40;;
14883;SDS011;7534;50.762;7.000;2023-06-19T02:54:53;7.65;;;7.03;;
14883;SDS011;7534;50.762;7.000;2023-06-19T02:57:19;7.97;;;7.25;;
14883;SDS011;7534;50.762;7.000;2023-06-19T02:59:45;7.25;;;6.68;;
14883;SDS011;7534;50.762;7.000;2023-06-19T03:02:11;7.82;;;7.13;;
14883;SDS011;7534;50.762;7.000;2023-06-19T03:04:37;7.47;;;6.88;;
14883;SDS011;7534;50.762;7.000;2023-06-19T03:07:02;7.45;;;6.85;;
14883;SDS011;7534;50.762;7.000;2023-06-19T03:09:28;7.95;;;7.28;;
14883;SDS011;7534;50.762;7.000;2023-06-19T03:11:54;7.93;;;7.32;;
14883;SDS011;7534;50.762;7.000;2023-06-19T03:14:20;7.88;;;7.05;;
14883;SDS011;7534;50.762;7.000;2023-06-19T03:16:46;7.88;;;7.13;;
14883;SDS011;7534;50.762;7.000;2023-06-19T03:19:12;7.80;;;7.18;;
14883;SDS011;7534;50.762;7.000;2023-06-19T03:21:38;7.85;;;7.20;;
14883;SDS011;7534;50.762;7.000;2023-06-19T03:24:04;8.23;;;7.63;;
14883;SDS011;7534;50.762;7.000;2023-06-19T03:26:30;7.95;;;7.25;;
14883;SDS011;7534;50.762;7.000;2023-06-19T03:28:55;8.05;;;7.28;;
14883;SDS011;7534;50.762;7.000;2023-06-19T03:31:21;7.95;;;7.20;;
14883;SDS011;7534;50.762;7.000;2023-06-19T03:33:47;8.50;;;7.80;;
14883;SDS011;7534;50.762;7.000;2023-06-19T03:36:12;8.23;;;7.53;;
14883;SDS011;7534;50.762;7.000;2023-06-19T03:38:38;8.05;;;7.38;;
14883;SDS011;7534;50.762;7.000;2023-06-19T03:41:04;8.10;;;7.50;;
14883;SDS011;7534;50.762;7.000;2023-06-19T03:43:29;8.00;;;7.30;;
14883;SDS011;7534;50.762;7.000;2023-06-19T03:45:55;8.13;;;7.43;;
14883;SDS011;7534;50.762;7.000;2023-06-19T03:48:21;8.63;;;7.32;;
14883;SDS011;7534;50.762;7.000;2023-06-19T03:50:46;7.97;;;7.18;;
14883;SDS011;7534;50.762;7.000;2023-06-19T03:53:12;8.07;;;7.30;;
14883;SDS011;7534;50.762;7.000;2023-06-19T03:55:38;7.75;;;7.15;;
14883;SDS011;7534;50.762;7.000;2023-06-19T03:58:04;8.60;;;7.15;;
14883;SDS011;7534;50.762;7.000;2023-06-19T04:00:31;7.05;;;6.40;;
14883;SDS011;7534;50.762;7.000;2023-06-19T04:02:57;7.32;;;6.72;;
14883;SDS011;7534;50.762;7.000;2023-06-19T04:05:22;7.60;;;6.90;;
14883;SDS011;7534;50.762;7.000;2023-06-19T04:07:49;7.13;;;6.53;;
14883;SDS011;7534;50.762;7.000;2023-06-19T04:10:15;7.68;;;6.03;;
14883;SDS011;7534;50.762;7.000;2023-06-19T04:12:41;6.65;;;6.03;;
14883;SDS011;7534;50.762;7.000;2023-06-19T04:15:07;6.22;;;5.72;;
14883;SDS011;7534;50.762;7.000;2023-06-19T04:17:33;6.78;;;6.07;;
14883;SDS011;7534;50.762;7.000;2023-06-19T04:19:59;6.55;;;5.95;;
14883;SDS011;7534;50.762;7.000;2023-06-19T04:22:25;6.28;;;5.78;;
14883;SDS011;7534;50.762;7.000;2023-06-19T04:24:50;6.25;;;5.75;;
14883;SDS011;7534;50.762;7.000;2023-06-19T04:27:16;6.28;;;5.75;;
14883;SDS011;7534;50.762;7.000;2023-06-19T04:29:42;6.35;;;5.85;;
14883;SDS011;7534;50.762;7.000;2023-06-19T04:32:07;6.35;;;5.80;;
14883;SDS011;7534;50.762;7.000;2023-06-19T04:34:40;6.70;;;6.10;;
14883;SDS011;7534;50.762;7.000;2023-06-19T04:37:11;6.43;;;5.93;;
14883;SDS011;7534;50.762;7.000;2023-06-19T04:39:37;6.60;;;5.65;;
14883;SDS011;7534;50.762;7.000;2023-06-19T04:42:03;6.30;;;5.70;;
14883;SDS011;7534;50.762;7.000;2023-06-19T04:44:29;6.60;;;6.00;;
14883;SDS011;7534;50.762;7.000;2023-06-19T04:46:58;6.40;;;5.90;;
14883;SDS011;7534;50.762;7.000;2023-06-19T04:49:28;5.85;;;5.43;;
14883;SDS011;7534;50.762;7.000;2023-06-19T04:51:55;6.45;;;5.95;;
14883;SDS011;7534;50.762;7.000;2023-06-19T04:54:22;6.68;;;6.18;;
14883;SDS011;7534;50.762;7.000;2023-06-19T04:56:48;6.28;;;5.78;;
14883;SDS011;7534;50.762;7.000;2023-06-19T04:59:13;6.32;;;5.78;;
14883;SDS011;7534;50.762;7.000;2023-06-19T05:01:43;6.43;;;5.53;;
14883;SDS011;7534;50.762;7.000;2023-06-19T05:04:09;6.82;;;6.13;;
14883;SDS011;7534;50.762;7.000;2023-06-19T05:06:36;6.45;;;5.85;;
14883;SDS011;7534;50.762;7.000;2023-06-19T05:09:02;6.22;;;5.70;;
14883;SDS011;7534;50.762;7.000;2023-06-19T05:11:28;6.28;;;5.78;;
14883;SDS011;7534;50.762;7.000;2023-06-19T05:13:53;6.28;;;5.72;;
14883;SDS011;7534;50.762;7.000;2023-06-19T05:16:19;6.82;;;6.10;;
14883;SDS011;7534;50.762;7.000;2023-06-19T05:18:45;6.72;;;5.97;;
14883;SDS011;7534;50.762;7.000;2023-06-19T05:21:11;6.43;;;5.82;;
14883;SDS011;7534;50.762;7.000;2023-06-19T05:23:37;6.10;;;5.50;;
14883;SDS011;7534;50.762;7.000;2023-06-19T05:26:05;6.32;;;5.82;;
14883;SDS011;7534;50.762;7.000;2023-06-19T05:28:31;5.57;;;5.07;;
14883;SDS011;7534;50.762;7.000;2023-06-19T05:30:57;7.45;;;5.80;;
14883;SDS011;7534;50.762;7.000;2023-06-19T05:33:23;6.00;;;5.50;;
14883;SDS011;7534;50.762;7.000;2023-06-19T05:35:49;5.93;;;5.45;;
14883;SDS011;7534;50.762;7.000;2023-06-19T05:38:19;6.05;;;5.50;;
14883;SDS011;7534;50.762;7.000;2023-06-19T05:40:45;6.20;;;5.60;;
14883;SDS011;7534;50.762;7.000;2023-06-19T05:43:11;6.07;;;5.55;;
14883;SDS011;7534;50.762;7.000;2023-06-19T05:45:37;5.93;;;5.43;;
14883;SDS011;7534;50.762;7.000;2023-06-19T05:48:03;5.97;;;5.47;;
14883;SDS011;7534;50.762;7.000;2023-06-19T05:50:29;6.13;;;5.53;;
14883;SDS011;7534;50.762;7.000;2023-06-19T05:52:55;6.10;;;5.38;;
14883;SDS011;7534;50.762;7.000;2023-06-19T05:55:21;5.70;;;5.25;;
14883;SDS011;7534;50.762;7.000;2023-06-19T05:57:47;7.13;;;5.55;;
14883;SDS011;7534;50.762;7.000;2023-06-19T06:00:13;6.55;;;5.95;;
14883;SDS011;7534;50.762;7.000;2023-06-19T06:02:40;6.03;;;5.53;;
14883;SDS011;7534;50.762;7.000;2023-06-19T06:05:06;6.03;;;5.57;;
14883;SDS011;7534;50.762;7.000;2023-06-19T06:07:33;6.85;;;6.20;;
14883;SDS011;7534;50.762;7.000;2023-06-19T06:09:59;6.97;;;6.28;;
14883;SDS011;7534;50.762;7.000;2023-06-19T06:12:25;7.15;;;6.55;;
14883;SDS011;7534;50.762;7.000;2023-06-19T06:14:51;7.00;;;6.40;;
14883;SDS011;7534;50.762;7.000;2023-06-19T06:17:16;6.75;;;6.13;;
14883;SDS011;7534;50.762;7.000;2023-06-19T06:19:42;7.50;;;6.53;;
14883;SDS011;7534;50.762;7.000;2023-06-19T06:22:09;7.10;;;6.45;;
14883;SDS011;7534;50.762;7.000;2023-06-19T06:24:34;7.25;;;6.55;;
14883;SDS011;7534;50.762;7.000;2023-06-19T06:27:00;7.10;;;6.35;;
14883;SDS011;7534;50.762;7.000;2023-06-19T06:29:26;6.50;;;6.00;;
14883;SDS011;7534;50.762;7.000;2023-06-19T06:31:51;6.97;;;6.47;;
14883;SDS011;7534;50.762;7.000;2023-06-19T06:34:29;7.05;;;6.45;;
14883;SDS011;7534;50.762;7.000;2023-06-19T06:36:55;8.85;;;6.53;;
14883;SDS011;7534;50.762;7.000;2023-06-19T06:39:21;7.05;;;6.47;;
14883;SDS011;7534;50.762;7.000;2023-06-19T06:41:46;7.15;;;6.47;;
14883;SDS011;7534;50.762;7.000;2023-06-19T06:44:12;6.43;;;5.97;;
14883;SDS011;7534;50.762;7.000;2023-06-19T06:46:38;6.72;;;6.13;;
14883;SDS011;7534;50.762;7.000;2023-06-19T06:49:03;6.97;;;6.38;;
14883;SDS011;7534;50.762;7.000;2023-06-19T06:51:29;6.45;;;5.95;;
14883;SDS011;7534;50.762;7.000;2023-06-19T06:53:55;7.20;;;6.50;;
14883;SDS011;7534;50.762;7.000;2023-06-19T06:56:20;6.53;;;5.95;;
14883;SDS011;7534;50.762;7.000;2023-06-19T06:58:46;6.70;;;6.10;;
14883;SDS011;7534;50.762;7.000;2023-06-19T07:01:12;7.03;;;6.43;;
14883;SDS011;7534;50.762;7.000;2023-06-19T07:03:37;6.75;;;6.20;;
14883;SDS011;7534;50.762;7.000;2023-06-19T07:06:04;6.30;;;5.70;;
14883;SDS011;7534;50.762;7.000;2023-06-19T07:08:30;7.47;;;6.45;;
14883;SDS011;7534;50.762;7.000;2023-06-19T07:10:55;6.10;;;5.50;;
14883;SDS011;7534;50.762;7.000;2023-06-19T07:13:21;6.15;;;5.65;;
14883;SDS011;7534;50.762;7.000;2023-06-19T07:15:47;5.75;;;5.35;;
14883;SDS011;7534;50.762;7.000;2023-06-19T07:18:12;5.60;;;5.05;;
14883;SDS011;7534;50.762;7.000;2023-06-19T07:20:38;5.10;;;4.80;;
14883;SDS011;7534;50.762;7.000;2023-06-19T07:23:04;5.88;;;4.20;;
14883;SDS011;7534;50.762;7.000;2023-06-19T07:25:29;4.10;;;3.80;;
14883;SDS011;7534;50.762;7.000;2023-06-19T07:27:55;3.85;;;3.55;;
14883;SDS011;7534;50.762;7.000;2023-06-19T07:30:21;5.22;;;3.20;;
14883;SDS011;7534;50.762;7.000;2023-06-19T07:32:46;3.60;;;3.25;;
14883;SDS011;7534;50.762;7.000;2023-06-19T07:35:12;3.42;;;3.13;;
14883;SDS011;7534;50.762;7.000;2023-06-19T07:37:38;4.53;;;2.90;;
14883;SDS011;7534;50.762;7.000;2023-06-19T07:40:03;3.10;;;2.80;;
14883;SDS011;7534;50.762;7.000;2023-06-19T07:42:30;2.72;;;2.53;;
14883;SDS011;7534;50.762;7.000;2023-06-19T07:44:55;2.80;;;2.60;;
14883;SDS011;7534;50.762;7.000;2023-06-19T07:47:21;2.83;;;2.63;;
14883;SDS011;7534;50.762;7.000;2023-06-19T07:49:47;3.30;;;2.85;;
14883;SDS011;7534;50.762;7.000;2023-06-19T07:52:12;2.28;;;2.10;;
14883;SDS011;7534;50.762;7.000;2023-06-19T07:54:50;2.28;;;2.05;;
14883;SDS011;7534;50.762;7.000;2023-06-19T07:57:20;1.90;;;1.80;;
14883;SDS011;7534;50.762;7.000;2023-06-19T07:59:48;1.90;;;1.80;;
14883;SDS011;7534;50.762;7.000;2023-06-19T08:02:15;1.73;;;1.60;;
14883;SDS011;7534;50.762;7.000;2023-06-19T08:04:42;1.70;;;1.60;;
14883;SDS011;7534;50.762;7.000;2023-06-19T08:07:08;2.40;;;1.85;;
14883;SDS011;7534;50.762;7.000;2023-06-19T08:09:34;1.92;;;1.80;;
14883;SDS011;7534;50.762;7.000;2023-06-19T08:12:01;1.85;;;1.75;;
14883;SDS011;7534;50.762;7.000;2023-06-19T08:14:27;2.00;;;1.90;;
14883;SDS011;7534;50.762;7.000;2023-06-19T08:16:54;2.05;;;1.85;;
14883;SDS011;7534;50.762;7.000;2023-06-19T08:19:20;2.88;;;1.90;;
14883;SDS011;7534;50.762;7.000;2023-06-19T08:21:46;2.00;;;1.90;;
14883;SDS011;7534;50.762;7.000;2023-06-19T08:24:11;2.00;;;1.90;;
14883;SDS011;7534;50.762;7.000;2023-06-19T08:26:37;1.80;;;1.70;;
14883;SDS011;7534;50.762;7.000;2023-06-19T08:29:02;2.00;;;1.90;;
14883;SDS011;7534;50.762;7.000;2023-06-19T08:31:28;2.10;;;1.90;;
14883;SDS011;7534;50.762;7.000;2023-06-19T08:33:54;1.85;;;1.75;;
14883;SDS011;7534;50.762;7.000;2023-06-19T08:36:20;2.10;;;2.00;;
14883;SDS011;7534;50.762;7.000;2023-06-19T08:38:46;2.03;;;1.92;;
14883;SDS011;7534;50.762;7.000;2023-06-19T08:41:14;2.08;;;1.98;;
14883;SDS011;7534;50.762;7.000;2023-06-19T08:43:43;2.10;;;2.00;;
14883;SDS011;7534;50.762;7.000;2023-06-19T08:46:10;2.28;;;2.10;;
14883;SDS011;7534;50.762;7.000;2023-06-19T08:48:42;2.28;;;2.08;;
14883;SDS011;7534;50.762;7.000;2023-06-19T08:51:09;3.15;;;2.10;;
14883;SDS011;7534;50.762;7.000;2023-06-19T08:53:46;2.20;;;2.10;;
14883;SDS011;7534;50.762;7.000;2023-06-19T08:56:17;2.47;;;2.28;;
14883;SDS011;7534;50.762;7.000;2023-06-19T08:58:43;2.40;;;2.20;;
14883;SDS011;7534;50.762;7.000;2023-06-19T09:01:08;2.70;;;2.50;;
14883;SDS011;7534;50.762;7.000;2023-06-19T09:03:34;2.70;;;2.50;;
14883;SDS011;7534;50.762;7.000;2023-06-19T09:06:03;2.95;;;2.40;;
14883;SDS011;7534;50.762;7.000;2023-06-19T09:08:33;2.50;;;2.30;;
14883;SDS011;7534;50.762;7.000;2023-06-19T09:11:00;2.47;;;2.28;;
14883;SDS011;7534;50.762;7.000;2023-06-19T09:13:28;2.53;;;2.40;;
14883;SDS011;7534;50.762;7.000;2023-06-19T09:16:02;5.15;;;2.50;;
14883;SDS011;7534;50.762;7.000;2023-06-19T09:18:31;2.75;;;2.55;;
14883;SDS011;7534;50.762;7.000;2023-06-19T09:21:14;2.85;;;2.65;;
14883;SDS011;7534;50.762;7.000;2023-06-19T09:23:43;2.92;;;2.65;;
14883;SDS011;7534;50.762;7.000;2023-06-19T09:26:14;2.72;;;2.53;;
14883;SDS011;7534;50.762;7.000;2023-06-19T09:28:41;3.30;;;3.00;;
14883;SDS011;7534;50.762;7.000;2023-06-19T09:31:10;4.00;;;2.58;;
14883;SDS011;7534;50.762;7.000;2023-06-19T09:33:37;2.90;;;2.60;;
14883;SDS011;7534;50.762;7.000;2023-06-19T09:36:05;3.03;;;2.72;;
14883;SDS011;7534;50.762;7.000;2023-06-19T09:38:32;3.17;;;2.88;;
14883;SDS011;7534;50.762;7.000;2023-06-19T09:41:05;3.20;;;2.60;;
14883;SDS011;7534;50.762;7.000;2023-06-19T09:43:42;3.22;;;2.42;;
14883;SDS011;7534;50.762;7.000;2023-06-19T09:46:09;3.47;;;2.92;;
14883;SDS011;7534;50.762;7.000;2023-06-19T09:48:40;2.92;;;2.60;;
14883;SDS011;7534;50.762;7.000;2023-06-19T09:53:45;5.68;;;3.00;;
14883;SDS011;7534;50.762;7.000;2023-06-19T09:56:14;3.00;;;2.80;;
14883;SDS011;7534;50.762;7.000;2023-06-19T09:58:46;3.20;;;3.00;;
14883;SDS011;7534;50.762;7.000;2023-06-19T10:01:16;3.10;;;2.90;;
14883;SDS011;7534;50.762;7.000;2023-06-19T10:03:43;3.33;;;3.03;;
14883;SDS011;7534;50.762;7.000;2023-06-19T10:06:13;3.10;;;2.80;;
14883;SDS011;7534;50.762;7.000;2023-06-19T10:08:41;3.67;;;3.38;;
14883;SDS011;7534;50.762;7.000;2023-06-19T10:11:09;3.42;;;2.90;;
14883;SDS011;7534;50.762;7.000;2023-06-19T10:13:36;4.13;;;2.97;;
14883;SDS011;7534;50.762;7.000;2023-06-19T10:16:19;3.40;;;3.10;;
14883;SDS011;7534;50.762;7.000;2023-06-19T10:18:47;3.15;;;2.80;;
14883;SDS011;7534;50.762;7.000;2023-06-19T10:21:19;3.50;;;3.20;;
14883;SDS011;7534;50.762;7.000;2023-06-19T10:23:53;3.20;;;2.90;;
14883;SDS011;7534;50.762;7.000;2023-06-19T10:26:29;3.10;;;2.90;;
14883;SDS011;7534;50.762;7.000;2023-06-19T10:29:00;3.45;;;3.15;;
14883;SDS011;7534;50.762;7.000;2023-06-19T10:31:29;3.47;;;3.22;;
14883;SDS011;7534;50.762;7.000;2023-06-19T10:33:54;3.20;;;3.00;;
14883;SDS011;7534;50.762;7.000;2023-06-19T10:36:21;3.70;;;3.40;;
14883;SDS011;7534;50.762;7.000;2023-06-19T10:38:50;4.05;;;3.40;;
14883;SDS011;7534;50.762;7.000;2023-06-19T10:41:16;3.33;;;3.13;;
14883;SDS011;7534;50.762;7.000;2023-06-19T10:46:29;3.30;;;3.05;;
14883;SDS011;7534;50.762;7.000;2023-06-19T10:48:59;4.10;;;3.58;;
14883;SDS011;7534;50.762;7.000;2023-06-19T10:51:39;3.95;;;3.60;;
14883;SDS011;7534;50.762;7.000;2023-06-19T10:54:08;3.60;;;3.30;;
14883;SDS011;7534;50.762;7.000;2023-06-19T10:56:34;3.67;;;3.38;;
14883;SDS011;7534;50.762;7.000;2023-06-19T10:59:02;3.47;;;3.17;;
14883;SDS011;7534;50.762;7.000;2023-06-19T11:04:08;4.65;;;3.53;;
14883;SDS011;7534;50.762;7.000;2023-06-19T11:06:37;3.72;;;3.42;;
14883;SDS011;7534;50.762;7.000;2023-06-19T11:09:08;3.90;;;3.60;;
14883;SDS011;7534;50.762;7.000;2023-06-19T11:11:36;3.70;;;3.17;;
14883;SDS011;7534;50.762;7.000;2023-06-19T11:14:12;3.50;;;3.20;;
14883;SDS011;7534;50.762;7.000;2023-06-19T11:16:42;3.60;;;3.30;;
14883;SDS011;7534;50.762;7.000;2023-06-19T11:19:15;3.47;;;3.17;;
14883;SDS011;7534;50.762;7.000;2023-06-19T11:21:45;3.92;;;3.63;;
14883;SDS011;7534;50.762;7.000;2023-06-19T11:24:14;3.83;;;3.53;;
14883;SDS011;7534;50.762;7.000;2023-06-19T11:26:41;3.55;;;3.20;;
14883;SDS011;7534;50.762;7.000;2023-06-19T11:31:53;3.88;;;3.58;;
14883;SDS011;7534;50.762;7.000;2023-06-19T11:34:33;4.57;;;3.65;;
14883;SDS011;7534;50.762;7.000;2023-06-19T11:37:02;4.07;;;3.70;;
14883;SDS011;7534;50.762;7.000;2023-06-19T11:39:37;3.67;;;3.38;;
14883;SDS011;7534;50.762;7.000;2023-06-19T11:42:03;4.55;;;3.30;;
14883;SDS011;7534;50.762;7.000;2023-06-19T11:44:29;3.75;;;3.45;;
14883;SDS011;7534;50.762;7.000;2023-06-19T11:46:58;3.30;;;3.00;;
14883;SDS011;7534;50.762;7.000;2023-06-19T11:49:25;3.50;;;3.20;;
14883;SDS011;7534;50.762;7.000;2023-06-19T11:51:50;3.78;;;3.30;;
14883;SDS011;7534;50.762;7.000;2023-06-19T11:54:16;4.18;;;3.22;;
14883;SDS011;7534;50.762;7.000;2023-06-19T11:56:45;3.85;;;3.55;;
14883;SDS011;7534;50.762;7.000;2023-06-19T11:59:12;3.88;;;3.58;;
14883;SDS011;7534;50.762;7.000;2023-06-19T12:01:39;3.65;;;3.35;;
14883;SDS011;7534;50.762;7.000;2023-06-19T12:04:05;4.97;;;3.30;;
14883;SDS011;7534;50.762;7.000;2023-06-19T12:06:31;3.63;;;3.33;;
14883;SDS011;7534;50.762;7.000;2023-06-19T12:08:57;3.35;;;3.15;;
14883;SDS011;7534;50.762;7.000;2023-06-19T12:11:23;3.55;;;3.28;;
14883;SDS011;7534;50.762;7.000;2023-06-19T12:13:49;3.80;;;3.50;;
14883;SDS011;7534;50.762;7.000;2023-06-19T12:16:15;3.50;;;3.20;;
14883;SDS011;7534;50.762;7.000;2023-06-19T12:18:41;3.40;;;3.10;;
14883;SDS011;7534;50.762;7.000;2023-06-19T12:21:07;3.70;;;3.42;;
14883;SDS011;7534;50.762;7.000;2023-06-19T12:23:33;5.05;;;3.22;;
14883;SDS011;7534;50.762;7.000;2023-06-19T12:25:59;3.60;;;3.30;;
14883;SDS011;7534;50.762;7.000;2023-06-19T12:28:24;3.75;;;3.45;;
14883;SDS011;7534;50.762;7.000;2023-06-19T12:30:50;3.90;;;3.25;;
14883;SDS011;7534;50.762;7.000;2023-06-19T12:33:18;3.40;;;3.10;;
14883;SDS011;7534;50.762;7.000;2023-06-19T12:35:45;3.70;;;3.40;;
14883;SDS011;7534;50.762;7.000;2023-06-19T12:38:12;3.38;;;3.10;;
14883;SDS011;7534;50.762;7.000;2023-06-19T12:40:38;3.45;;;3.05;;
14883;SDS011;7534;50.762;7.000;2023-06-19T12:43:04;5.10;;;3.65;;
14883;SDS011;7534;50.762;7.000;2023-06-19T12:45:30;4.15;;;3.60;;
14883;SDS011;7534;50.762;7.000;2023-06-19T12:47:55;3.90;;;3.42;;
14883;SDS011;7534;50.762;7.000;2023-06-19T12:50:21;3.75;;;3.30;;
14883;SDS011;7534;50.762;7.000;2023-06-19T12:52:47;3.75;;;3.45;;
14883;SDS011;7534;50.762;7.000;2023-06-19T12:55:14;4.47;;;3.40;;
14883;SDS011;7534;50.762;7.000;2023-06-19T12:57:39;3.30;;;3.08;;
14883;SDS011;7534;50.762;7.000;2023-06-19T13:00:06;5.50;;;3.10;;
14883;SDS011;7534;50.762;7.000;2023-06-19T13:02:38;3.38;;;3.17;;
14883;SDS011;7534;50.762;7.000;2023-06-19T13:05:05;3.25;;;2.97;;
14883;SDS011;7534;50.762;7.000;2023-06-19T13:07:32;3.78;;;3.45;;
14883;SDS011;7534;50.762;7.000;2023-06-19T13:09:58;4.80;;;3.05;;
14883;SDS011;7534;50.762;7.000;2023-06-19T13:12:24;3.50;;;3.20;;
14883;SDS011;7534;50.762;7.000;2023-06-19T13:14:49;3.35;;;3.15;;
14883;SDS011;7534;50.762;7.000;2023-06-19T13:17:15;3.40;;;3.15;;
14883;SDS011;7534;50.762;7.000;2023-06-19T13:19:41;3.42;;;3.22;;
14883;SDS011;7534;50.762;7.000;2023-06-19T13:22:06;3.50;;;3.20;;
14883;SDS011;7534;50.762;7.000;2023-06-19T13:24:32;3.50;;;3.20;;
14883;SDS011;7534;50.762;7.000;2023-06-19T13:26:58;3.95;;;3.20;;
14883;SDS011;7534;50.762;7.000;2023-06-19T13:29:25;3.78;;;3.47;;
14883;SDS011;7534;50.762;7.000;2023-06-19T13:31:51;3.60;;;3.30;;
14883;SDS011;7534;50.762;7.000;2023-06-19T13:34:16;3.22;;;3.00;;
14883;SDS011;7534;50.762;7.000;2023-06-19T13:36:43;3.60;;;3.30;;
14883;SDS011;7534;50.762;7.000;2023-06-19T13:39:09;5.80;;;3.40;;
14883;SDS011;7534;50.762;7.000;2023-06-19T13:41:35;3.47;;;3.13;;
14883;SDS011;7534;50.762;7.000;2023-06-19T13:44:01;3.85;;;3.50;;
14883;SDS011;7534;50.762;7.000;2023-06-19T13:46:27;3.90;;;3.40;;
14883;SDS011;7534;50.762;7.000;2023-06-19T13:48:54;5.18;;;3.58;;
14883;SDS011;7534;50.762;7.000;2023-06-19T13:51:20;3.45;;;2.92;;
14883;SDS011;7534;50.762;7.000;2023-06-19T13:53:47;4.38;;;3.33;;
14883;SDS011;7534;50.762;7.000;2023-06-19T13:56:14;3.53;;;3.10;;
14883;SDS011;7534;50.762;7.000;2023-06-19T13:58:40;3.92;;;3.55;;
14883;SDS011;7534;50.762;7.000;2023-06-19T14:01:06;4.00;;;3.70;;
14883;SDS011;7534;50.762;7.000;2023-06-19T14:03:33;4.03;;;3.65;;
14883;SDS011;7534;50.762;7.000;2023-06-19T14:05:59;5.47;;;3.67;;
14883;SDS011;7534;50.762;7.000;2023-06-19T14:08:24;3.47;;;3.25;;
14883;SDS011;7534;50.762;7.000;2023-06-19T14:10:50;3.63;;;3.30;;
14883;SDS011;7534;50.762;7.000;2023-06-19T14:13:16;3.85;;;3.55;;
14883;SDS011;7534;50.762;7.000;2023-06-19T14:15:42;3.70;;;3.30;;
14883;SDS011;7534;50.762;7.000;2023-06-19T14:18:08;3.85;;;3.28;;
14883;SDS011;7534;50.762;7.000;2023-06-19T14:20:33;3.85;;;3.55;;
14883;SDS011;7534;50.762;7.000;2023-06-19T14:22:59;3.88;;;3.58;;
14883;SDS011;7534;50.762;7.000;2023-06-19T14:25:25;3.50;;;3.20;;
14883;SDS011;7534;50.762;7.000;2023-06-19T14:27:51;3.20;;;3.00;;
14883;SDS011;7534;50.762;7.000;2023-06-19T14:30:17;3.50;;;3.20;;
14883;SDS011;7534;50.762;7.000;2023-06-19T14:32:44;3.40;;;3.20;;
14883;SDS011;7534;50.762;7.000;2023-06-19T14:35:10;3.72;;;3.42;;
14883;SDS011;7534;50.762;7.000;2023-06-19T14:37:36;3.92;;;3.53;;
14883;SDS011;7534;50.762;7.000;2023-06-19T14:40:02;3.70;;;3.40;;
14883;SDS011;7534;50.762;7.000;2023-06-19T14:42:28;3.53;;;3.22;;
14883;SDS011;7534;50.762;7.000;2023-06-19T14:44:54;5.38;;;3.60;;
14883;SDS011;7534;50.762;7.000;2023-06-19T14:47:19;3.88;;;3.47;;
14883;SDS011;7534;50.762;7.000;2023-06-19T14:49:45;3.60;;;3.30;;
14883;SDS011;7534;50.762;7.000;2023-06-19T14:52:12;3.40;;;3.20;;
14883;SDS011;7534;50.762;7.000;2023-06-19T14:54:38;3.65;;;3.45;;
14883;SDS011;7534;50.762;7.000;2023-06-19T14:57:04;3.60;;;3.30;;
14883;SDS011;7534;50.762;7.000;2023-06-19T14:59:31;4.95;;;3.17;;
14883;SDS011;7534;50.762;7.000;2023-06-19T15:01:56;3.40;;;3.17;;
14883;SDS011;7534;50.762;7.000;2023-06-19T15:04:22;3.92;;;3.63;;
14883;SDS011;7534;50.762;7.000;2023-06-19T15:06:48;4.55;;;3.20;;
14883;SDS011;7534;50.762;7.000;2023-06-19T15:09:13;3.80;;;3.50;;
14883;SDS011;7534;50.762;7.000;2023-06-19T15:11:39;3.75;;;3.45;;
14883;SDS011;7534;50.762;7.000;2023-06-19T15:14:05;5.32;;;3.58;;